Time;durP1;ratioP1;P1;durP2;ratioP2;P2;SDS_P1;SDS_P2;PMS_P1;PMS_P2;Temp;Humidity;BMP_temperature;BMP_pressure;BME280_temperature;BME280_humidity;BME280_pressure;Samples;Min_cycle;Max_cycle;Signal;HPM_P1;HPM_P2
2022/02/12 00:00:37;;;;;;;48.38;32.28;;;;;;;;;;5033098;28;20044;-78
2022/02/12 00:03:03;;;;;;;25.83;17.88;;;;;;;;;;5033413;28;20064;-78
2022/02/12 00:05:30;;;;;;;19.70;14.65;;;;;;;;;;5032120;28;20045;-78
2022/02/12 00:07:57;;;;;;;19.20;12.68;;;;;;;;;;5033172;28;20485;-78
2022/02/12 00:10:24;;;;;;;18.17;12.82;;;;;;;;;;5032894;28;20472;-78
2022/02/12 00:12:51;;;;;;;18.13;12.88;;;;;;;;;;5033226;28;20049;-78
2022/02/12 00:15:17;;;;;;;18.63;14.18;;;;;;;;;;5032877;28;20032;-78
2022/02/12 00:17:43;;;;;;;20.75;15.57;;;;;;;;;;5033235;28;20172;-78
2022/02/12 00:20:10;;;;;;;21.08;15.70;;;;;;;;;;5032779;28;20381;-78
2022/02/12 00:22:37;;;;;;;20.80;14.57;;;;;;;;;;5032956;28;20041;-78
2022/02/12 00:25:04;;;;;;;33.17;20.92;;;;;;;;;;5032631;28;20049;-78
2022/02/12 00:27:30;;;;;;;67.88;42.40;;;;;;;;;;5032660;28;20033;-79
2022/02/12 00:29:56;;;;;;;65.28;40.80;;;;;;;;;;5014956;28;20414;-78
2022/02/12 00:32:22;;;;;;;53.10;33.42;;;;;;;;;;5015022;28;20029;-78
2022/02/12 00:34:48;;;;;;;44.72;27.27;;;;;;;;;;5015053;28;20030;-78
2022/02/12 00:37:14;;;;;;;57.85;37.83;;;;;;;;;;5032656;28;20500;-78
2022/02/12 00:39:41;;;;;;;51.38;34.97;;;;;;;;;;5032489;28;20376;-78
2022/02/12 00:42:07;;;;;;;42.53;28.35;;;;;;;;;;5032640;28;20503;-78
2022/02/12 00:44:33;;;;;;;45.97;27.40;;;;;;;;;;5032371;28;20017;-78
2022/02/12 00:46:59;;;;;;;28.40;18.52;;;;;;;;;;5032559;28;20029;-78
2022/02/12 00:49:26;;;;;;;23.33;16.38;;;;;;;;;;5014319;28;20124;-78
2022/02/12 00:51:52;;;;;;;22.25;15.52;;;;;;;;;;5032564;28;20061;-78
2022/02/12 00:54:40;;;;;;;25.58;18.02;;;;;;;;;;5032033;28;20022;-79
2022/02/12 00:57:07;;;;;;;25.95;17.90;;;;;;;;;;5014513;28;20074;-78
2022/02/12 00:59:33;;;;;;;28.48;18.25;;;;;;;;;;5032289;28;20029;-78
2022/02/12 01:01:59;;;;;;;25.35;17.40;;;;;;;;;;5032224;28;20080;-78
2022/02/12 01:04:28;;;;;;;24.48;17.85;;;;;;;;;;5032047;28;20021;-78
2022/02/12 01:06:54;;;;;;;25.33;18.92;;;;;;;;;;5032213;28;20500;-78
2022/02/12 01:09:22;;;;;;;28.92;19.80;;;;;;;;;;5031902;28;20380;-78
2022/02/12 01:11:51;;;;;;;36.58;22.05;;;;;;;;;;5032172;28;20408;-78
2022/02/12 01:14:19;;;;;;;33.33;20.63;;;;;;;;;;5031882;28;20041;-78
2022/02/12 01:16:45;;;;;;;22.02;14.20;;;;;;;;;;5034150;28;20025;-78
2022/02/12 01:19:11;;;;;;;19.85;12.82;;;;;;;;;;5018428;28;20032;-79
2022/02/12 01:21:37;;;;;;;32.38;19.17;;;;;;;;;;5036187;28;20705;-78
2022/02/12 01:24:04;;;;;;;43.75;23.55;;;;;;;;;;5036072;28;20029;-78
2022/02/12 01:26:30;;;;;;;37.05;24.52;;;;;;;;;;5035693;28;20056;-78
2022/02/12 01:28:56;;;;;;;38.22;24.63;;;;;;;;;;5036105;28;20025;-78
2022/02/12 01:31:25;;;;;;;39.05;28.02;;;;;;;;;;5035921;28;20365;-77
2022/02/12 01:33:53;;;;;;;49.22;36.42;;;;;;;;;;5036049;28;20029;-79
2022/02/12 01:36:19;;;;;;;47.08;31.58;;;;;;;;;;5035714;28;20037;-78
2022/02/12 01:38:45;;;;;;;45.80;31.17;;;;;;;;;;5035964;28;20052;-78
2022/02/12 01:41:14;;;;;;;44.72;29.30;;;;;;;;;;5035795;28;20076;-78
2022/02/12 01:43:47;;;;;;;30.05;22.17;;;;;;;;;;5035723;28;20029;-78
2022/02/12 01:46:13;;;;;;;29.40;20.87;;;;;;;;;;5035478;28;20510;-78
2022/02/12 01:48:43;;;;;;;15.52;11.82;;;;;;;;;;5035662;28;20040;-79
2022/02/12 01:51:09;;;;;;;12.52;10.13;;;;;;;;;;5035668;28;20029;-78
2022/02/12 01:53:43;;;;;;;12.77;9.63;;;;;;;;;;5035664;28;20037;-78
2022/02/12 01:56:09;;;;;;;12.02;8.98;;;;;;;;;;5027035;28;20439;-78
2022/02/12 01:58:38;;;;;;;14.77;9.57;;;;;;;;;;5023735;28;20465;-77
2022/02/12 02:01:04;;;;;;;13.90;9.38;;;;;;;;;;5015718;28;20026;-78
2022/02/12 02:03:30;;;;;;;12.55;9.45;;;;;;;;;;5015759;28;20481;-77
2022/02/12 02:05:56;;;;;;;13.38;10.27;;;;;;;;;;5015689;28;20042;-77
2022/02/12 02:08:22;;;;;;;12.57;10.77;;;;;;;;;;5015369;28;20084;-77
2022/02/12 02:10:49;;;;;;;18.45;14.55;;;;;;;;;;5015611;28;20029;-77
2022/02/12 02:13:23;;;;;;;28.27;18.35;;;;;;;;;;5015316;28;20038;-78
2022/02/12 02:15:49;;;;;;;28.17;18.70;;;;;;;;;;4998008;28;20064;-77
2022/02/12 02:18:15;;;;;;;33.85;22.75;;;;;;;;;;4997827;28;20100;-77
2022/02/12 02:20:41;;;;;;;31.83;20.92;;;;;;;;;;5015419;28;20423;-77
2022/02/12 02:23:08;;;;;;;29.50;20.55;;;;;;;;;;5015246;28;20029;-77
2022/02/12 02:25:35;;;;;;;38.78;26.13;;;;;;;;;;5014991;28;20057;-78
2022/02/12 02:28:01;;;;;;;23.52;16.98;;;;;;;;;;5014296;28;20033;-78
2022/02/12 02:30:27;;;;;;;19.73;15.32;;;;;;;;;;5015254;28;20033;-77
2022/02/12 02:32:54;;;;;;;17.55;14.13;;;;;;;;;;5015313;28;20105;-77
2022/02/12 02:35:22;;;;;;;14.88;12.70;;;;;;;;;;5015027;28;20053;-77
2022/02/12 02:37:48;;;;;;;18.75;13.27;;;;;;;;;;5014992;28;20088;-77
2022/02/12 02:40:18;;;;;;;17.30;12.27;;;;;;;;;;5014927;28;20030;-78
2022/02/12 02:42:46;;;;;;;17.13;12.63;;;;;;;;;;5015047;28;20030;-77
2022/02/12 02:45:13;;;;;;;18.67;14.38;;;;;;;;;;5014735;28;20080;-78
2022/02/12 02:47:42;;;;;;;20.83;16.33;;;;;;;;;;5015010;28;20473;-77
2022/02/12 02:55:59;;;;;;;20.27;14.55;;;;;;;;;;5014673;28;20516;-77
2022/02/12 02:58:25;;;;;;;20.50;15.77;;;;;;;;;;5014504;28;19960;-77
2022/02/12 03:00:51;;;;;;;23.42;18.52;;;;;;;;;;5014808;28;20060;-77
2022/02/12 03:03:17;;;;;;;25.40;18.15;;;;;;;;;;5014345;28;20030;-78
2022/02/12 03:05:44;;;;;;;22.85;17.38;;;;;;;;;;5014315;28;20038;-77
2022/02/12 03:08:10;;;;;;;22.77;16.92;;;;;;;;;;5014385;28;20022;-77
2022/02/12 03:10:36;;;;;;;21.77;17.30;;;;;;;;;;5014232;28;20026;-77
2022/02/12 03:13:02;;;;;;;25.38;18.35;;;;;;;;;;5014305;28;20034;-77
2022/02/12 03:15:28;;;;;;;22.33;16.92;;;;;;;;;;5014193;28;20026;-77
2022/02/12 03:17:54;;;;;;;21.70;17.75;;;;;;;;;;5014324;28;20041;-77
2022/02/12 03:20:21;;;;;;;23.67;17.48;;;;;;;;;;5014014;28;20036;-78
2022/02/12 03:22:47;;;;;;;23.08;16.80;;;;;;;;;;5014295;28;20030;-77
2022/02/12 03:25:13;;;;;;;22.10;17.08;;;;;;;;;;5014043;28;20060;-77
2022/02/12 03:27:39;;;;;;;21.05;14.93;;;;;;;;;;5013818;28;20036;-77
2022/02/12 03:30:05;;;;;;;19.85;15.50;;;;;;;;;;5014207;28;20026;-77
2022/02/12 03:32:31;;;;;;;24.27;18.13;;;;;;;;;;5013806;28;20026;-77
2022/02/12 03:35:00;;;;;;;21.58;16.83;;;;;;;;;;5014153;28;20473;-78
2022/02/12 03:37:28;;;;;;;22.17;17.10;;;;;;;;;;4996109;28;20025;-79
2022/02/12 03:39:59;;;;;;;26.52;19.42;;;;;;;;;;4996442;28;20061;-78
2022/02/12 03:42:34;;;;;;;25.23;20.40;;;;;;;;;;4995901;28;20021;-78
2022/02/12 03:45:00;;;;;;;34.15;19.10;;;;;;;;;;5014033;28;20022;-78
2022/02/12 03:47:26;;;;;;;29.13;17.35;;;;;;;;;;5013367;28;20065;-78
2022/02/12 03:49:52;;;;;;;27.92;17.40;;;;;;;;;;5013757;28;20100;-79
2022/02/12 03:52:18;;;;;;;26.15;17.20;;;;;;;;;;5013430;28;20104;-78
2022/02/12 03:54:45;;;;;;;28.25;16.88;;;;;;;;;;5013325;28;20109;-79
2022/02/12 03:57:11;;;;;;;21.70;16.88;;;;;;;;;;5013573;28;20107;-78
2022/02/12 03:59:37;;;;;;;22.35;18.58;;;;;;;;;;4995605;28;20026;-78
2022/02/12 04:02:03;;;;;;;25.50;18.00;;;;;;;;;;5013519;28;20500;-80
2022/02/12 04:04:29;;;;;;;23.13;16.58;;;;;;;;;;5013068;28;20481;-79
2022/02/12 04:06:58;;;;;;;25.95;18.25;;;;;;;;;;5013309;28;20038;-78
2022/02/12 04:09:24;;;;;;;28.90;18.23;;;;;;;;;;5013113;28;20038;-78
2022/02/12 04:11:51;;;;;;;23.60;17.23;;;;;;;;;;5013180;28;20131;-79
2022/02/12 04:14:18;;;;;;;27.88;19.45;;;;;;;;;;5013293;28;20032;-79
2022/02/12 04:16:44;;;;;;;26.73;20.85;;;;;;;;;;5013195;28;20049;-80
2022/02/12 04:19:10;;;;;;;32.15;20.85;;;;;;;;;;5013290;28;20369;-82
2022/02/12 04:21:36;;;;;;;35.10;21.52;;;;;;;;;;4995249;28;20469;-81
2022/02/12 04:24:02;;;;;;;30.05;20.63;;;;;;;;;;5013092;28;20030;-80
2022/02/12 04:26:30;;;;;;;30.85;21.65;;;;;;;;;;4995036;28;20115;-79
2022/02/12 04:28:56;;;;;;;32.78;24.73;;;;;;;;;;5013092;28;20132;-81
2022/02/12 04:31:25;;;;;;;34.10;23.58;;;;;;;;;;5013046;28;20030;-80
2022/02/12 04:33:51;;;;;;;26.65;19.00;;;;;;;;;;5013137;28;20029;-79
2022/02/12 04:36:17;;;;;;;29.38;21.73;;;;;;;;;;5012801;28;20476;-80
2022/02/12 04:38:43;;;;;;;31.70;23.27;;;;;;;;;;5012854;28;20030;-83
2022/02/12 04:41:12;;;;;;;31.00;22.38;;;;;;;;;;5012959;28;20477;-82
2022/02/12 04:43:45;;;;;;;28.42;20.65;;;;;;;;;;5012628;28;20125;-80
2022/02/12 04:46:11;;;;;;;35.85;25.10;;;;;;;;;;5012867;28;20397;-79
2022/02/12 04:48:38;;;;;;;34.20;23.67;;;;;;;;;;4994925;28;20037;-82
2022/02/12 04:51:04;;;;;;;31.70;23.33;;;;;;;;;;5012423;28;20029;-78
2022/02/12 04:53:30;;;;;;;32.28;25.40;;;;;;;;;;5012468;28;20034;-81
2022/02/12 04:55:59;;;;;;;33.42;24.75;;;;;;;;;;5012798;28;20025;-80
2022/02/12 04:58:25;;;;;;;32.70;23.33;;;;;;;;;;5012556;28;20057;-79
2022/02/12 05:00:51;;;;;;;35.55;25.67;;;;;;;;;;4994888;28;20060;-79
2022/02/12 05:03:20;;;;;;;33.58;24.67;;;;;;;;;;5012578;28;20026;-84
2022/02/12 05:05:48;;;;;;;33.67;25.48;;;;;;;;;;5012474;28;20053;-80
2022/02/12 05:08:14;;;;;;;33.70;24.88;;;;;;;;;;5012637;28;20531;-80
2022/02/12 05:10:43;;;;;;;26.08;21.75;;;;;;;;;;4994785;28;20036;-79
2022/02/12 05:13:09;;;;;;;29.38;22.63;;;;;;;;;;5012461;28;20493;-79
2022/02/12 05:15:35;;;;;;;34.10;24.42;;;;;;;;;;5012547;28;20068;-79
2022/02/12 05:18:18;;;;;;;30.08;22.00;;;;;;;;;;5012507;28;20396;-80
2022/02/12 05:20:47;;;;;;;30.23;23.73;;;;;;;;;;4995073;28;20030;-84
2022/02/12 05:23:14;;;;;;;29.85;24.70;;;;;;;;;;5012345;28;20026;-79
2022/02/12 05:25:40;;;;;;;32.50;22.85;;;;;;;;;;4994464;28;20041;-80
2022/02/12 05:28:07;;;;;;;31.50;23.52;;;;;;;;;;5012418;28;20111;-79
2022/02/12 05:30:43;;;;;;;25.65;20.33;;;;;;;;;;5012416;28;20415;-80
2022/02/12 05:33:09;;;;;;;28.60;22.02;;;;;;;;;;5012450;28;20396;-79
2022/02/12 05:35:35;;;;;;;33.97;23.55;;;;;;;;;;5012366;28;20033;-82
2022/02/12 05:38:04;;;;;;;27.80;21.38;;;;;;;;;;4994700;28;20037;-80
2022/02/12 05:40:35;;;;;;;30.85;23.55;;;;;;;;;;5012365;28;20029;-82
2022/02/12 05:43:02;;;;;;;29.55;22.35;;;;;;;;;;4994528;28;20370;-81
2022/02/12 05:45:28;;;;;;;29.42;20.92;;;;;;;;;;5012336;28;20026;-81
2022/02/12 05:47:54;;;;;;;27.80;21.75;;;;;;;;;;4994592;28;20033;-79
2022/02/12 05:50:27;;;;;;;28.67;21.33;;;;;;;;;;5012180;28;20084;-80
2022/02/12 05:52:54;;;;;;;25.85;20.73;;;;;;;;;;5012117;28;20080;-82
2022/02/12 05:55:20;;;;;;;27.45;20.70;;;;;;;;;;5012331;28;20054;-81
2022/02/12 05:57:46;;;;;;;24.02;19.17;;;;;;;;;;5011850;28;20030;-79
2022/02/12 06:00:13;;;;;;;23.70;17.95;;;;;;;;;;4994507;28;20030;-80
2022/02/12 06:02:39;;;;;;;22.73;18.23;;;;;;;;;;5012091;28;20030;-80
2022/02/12 06:05:05;;;;;;;24.58;18.15;;;;;;;;;;5015587;28;20037;-77
2022/02/12 06:07:34;;;;;;;20.70;15.20;;;;;;;;;;5015804;28;20117;-79
2022/02/12 06:10:00;;;;;;;21.35;15.77;;;;;;;;;;5015456;28;20106;-80
2022/02/12 06:12:26;;;;;;;18.67;16.25;;;;;;;;;;5015549;28;20551;-80
2022/02/12 06:14:52;;;;;;;18.27;13.10;;;;;;;;;;4997815;28;20540;-81
2022/02/12 06:17:18;;;;;;;18.60;14.68;;;;;;;;;;5015240;28;20030;-79
2022/02/12 06:19:45;;;;;;;14.63;11.90;;;;;;;;;;4997597;28;20120;-84
2022/02/12 06:22:11;;;;;;;19.02;13.93;;;;;;;;;;4997438;28;20037;-81
2022/02/12 06:24:37;;;;;;;16.65;13.52;;;;;;;;;;5015377;28;20465;-79
2022/02/12 06:27:06;;;;;;;15.73;12.55;;;;;;;;;;5014826;28;20127;-86
2022/02/12 06:29:35;;;;;;;17.27;12.07;;;;;;;;;;5014787;28;20374;-80
2022/02/12 06:32:01;;;;;;;15.40;11.02;;;;;;;;;;5014999;28;20029;-83
2022/02/12 06:34:27;;;;;;;13.55;8.32;;;;;;;;;;5015214;28;20377;-78
2022/02/12 06:36:53;;;;;;;16.02;10.43;;;;;;;;;;4997456;28;20112;-81
2022/02/12 06:39:22;;;;;;;13.23;9.93;;;;;;;;;;4997621;28;20037;-81
2022/02/12 06:41:48;;;;;;;12.52;9.68;;;;;;;;;;5004167;28;20095;-80
2022/02/12 06:44:14;;;;;;;12.10;8.52;;;;;;;;;;5034935;28;20030;-81
2022/02/12 06:46:40;;;;;;;13.20;10.52;;;;;;;;;;5034813;28;20041;-78
2022/02/12 06:49:13;;;;;;;11.02;7.97;;;;;;;;;;5034718;28;20079;-81
2022/02/12 06:51:40;;;;;;;12.20;7.82;;;;;;;;;;5016945;28;20030;-82
2022/02/12 06:54:06;;;;;;;9.85;7.07;;;;;;;;;;5034678;28;20055;-80
2022/02/12 06:56:32;;;;;;;10.70;9.20;;;;;;;;;;5034476;28;20431;-82
2022/02/12 06:58:58;;;;;;;10.02;6.68;;;;;;;;;;5016642;28;20480;-81
2022/02/12 07:01:26;;;;;;;10.90;7.63;;;;;;;;;;5034330;28;20365;-80
2022/02/12 07:03:58;;;;;;;8.35;6.38;;;;;;;;;;5034307;28;20032;-82
2022/02/12 07:06:26;;;;;;;11.48;6.95;;;;;;;;;;5016699;28;20069;-81
2022/02/12 07:08:52;;;;;;;10.68;7.05;;;;;;;;;;5016562;28;20040;-80
2022/02/12 07:11:30;;;;;;;13.35;6.97;;;;;;;;;;5016360;28;20480;-81
2022/02/12 07:14:03;;;;;;;9.18;6.55;;;;;;;;;;5033861;28;20030;-80
2022/02/12 07:16:30;;;;;;;10.33;7.17;;;;;;;;;;5034476;28;20102;-81
2022/02/12 07:18:56;;;;;;;9.02;7.35;;;;;;;;;;5034085;28;20267;-80
2022/02/12 07:21:22;;;;;;;9.18;6.25;;;;;;;;;;5016621;28;20435;-79
2022/02/12 07:23:49;;;;;;;8.80;5.60;;;;;;;;;;5034399;28;20116;-79
2022/02/12 07:26:20;;;;;;;8.57;6.18;;;;;;;;;;5034070;28;20386;-82
2022/02/12 07:28:46;;;;;;;8.57;5.15;;;;;;;;;;5016666;28;20057;-79
2022/02/12 07:31:16;;;;;;;12.13;6.78;;;;;;;;;;5016255;28;20033;-82
2022/02/12 07:33:42;;;;;;;7.78;6.55;;;;;;;;;;5016587;28;20519;-80
2022/02/12 07:36:09;;;;;;;9.15;6.80;;;;;;;;;;5016012;28;20040;-80
2022/02/12 07:38:38;;;;;;;6.65;5.60;;;;;;;;;;5016339;28;20068;-82
2022/02/12 07:41:06;;;;;;;7.45;5.30;;;;;;;;;;5033256;28;20030;-81
2022/02/12 07:43:34;;;;;;;9.48;5.68;;;;;;;;;;5034136;28;20109;-79
2022/02/12 07:46:01;;;;;;;12.55;6.18;;;;;;;;;;5033288;28;20420;-79
2022/02/12 07:48:29;;;;;;;8.68;4.72;;;;;;;;;;5033263;28;20073;-82
2022/02/12 07:50:56;;;;;;;6.93;4.65;;;;;;;;;;5016231;28;20112;-79
2022/02/12 07:53:22;;;;;;;6.30;4.55;;;;;;;;;;5033845;28;20414;-82
2022/02/12 07:55:48;;;;;;;11.07;6.20;;;;;;;;;;5015916;28;20096;-79
2022/02/12 07:58:15;;;;;;;11.90;5.15;;;;;;;;;;5033408;28;20040;-79
2022/02/12 08:00:42;;;;;;;8.63;4.72;;;;;;;;;;5016110;28;20384;-84
2022/02/12 08:03:10;;;;;;;6.28;3.92;;;;;;;;;;5015617;28;20116;-87
2022/02/12 08:05:36;;;;;;;5.38;3.90;;;;;;;;;;5033849;28;20029;-80
2022/02/12 08:08:03;;;;;;;9.23;5.35;;;;;;;;;;5033628;28;20167;-80
2022/02/12 08:13:15;;;;;;;8.95;3.83;;;;;;;;;;5033094;28;20052;-81
2022/02/12 08:15:41;;;;;;;7.63;5.47;;;;;;;;;;5015789;28;20048;-79
2022/02/12 08:18:07;;;;;;;7.65;4.30;;;;;;;;;;5033343;28;20033;-81
2022/02/12 08:20:33;;;;;;;7.60;4.32;;;;;;;;;;5033188;28;20029;-82
2022/02/12 08:23:02;;;;;;;7.55;3.60;;;;;;;;;;5033192;28;20456;-84
2022/02/12 08:25:28;;;;;;;15.07;5.22;;;;;;;;;;5032188;28;20448;-80
2022/02/12 08:27:54;;;;;;;7.43;4.18;;;;;;;;;;5032882;28;20029;-80
2022/02/12 08:30:22;;;;;;;5.57;3.15;;;;;;;;;;5032756;28;20093;-81
2022/02/12 08:32:48;;;;;;;6.82;4.22;;;;;;;;;;5033090;28;20390;-81
2022/02/12 08:35:15;;;;;;;6.63;3.95;;;;;;;;;;5032771;28;20034;-82
2022/02/12 08:37:42;;;;;;;6.35;5.03;;;;;;;;;;5032990;28;20028;-79
2022/02/12 08:40:27;;;;;;;5.20;3.67;;;;;;;;;;5032589;28;20057;-81
2022/02/12 08:42:54;;;;;;;7.55;4.05;;;;;;;;;;5032563;28;20031;-80
2022/02/12 08:45:21;;;;;;;6.15;2.63;;;;;;;;;;5032593;28;20026;-77
2022/02/12 08:47:47;;;;;;;9.30;5.25;;;;;;;;;;5032827;28;20034;-79
2022/02/12 08:50:15;;;;;;;6.43;4.53;;;;;;;;;;5014562;28;20121;-80
2022/02/12 08:52:45;;;;;;;7.63;4.38;;;;;;;;;;5020064;28;20036;-80
2022/02/12 08:55:12;;;;;;;7.15;5.50;;;;;;;;;;5052256;28;20021;-78
2022/02/12 08:57:39;;;;;;;5.18;3.40;;;;;;;;;;5034621;28;20435;-80
2022/02/12 09:00:06;;;;;;;5.95;4.05;;;;;;;;;;5052785;28;20116;-81
2022/02/12 09:02:34;;;;;;;5.85;2.90;;;;;;;;;;5034182;28;20025;-82
2022/02/12 09:05:04;;;;;;;4.45;3.53;;;;;;;;;;5052564;28;20107;-83
2022/02/12 09:07:33;;;;;;;6.25;3.40;;;;;;;;;;5034162;28;20044;-84
2022/02/12 09:10:01;;;;;;;8.13;4.30;;;;;;;;;;5052490;28;20048;-80
2022/02/12 09:12:27;;;;;;;4.28;3.28;;;;;;;;;;5052123;28;20139;-81
2022/02/12 09:14:58;;;;;;;8.98;3.45;;;;;;;;;;5052460;28;20036;-84
2022/02/12 09:17:25;;;;;;;4.70;2.67;;;;;;;;;;5051951;28;20032;-80
2022/02/12 09:19:51;;;;;;;6.65;3.17;;;;;;;;;;5052416;28;20031;-78
2022/02/12 09:22:17;;;;;;;7.22;4.32;;;;;;;;;;5052146;28;20464;-83
2022/02/12 09:24:51;;;;;;;6.78;3.22;;;;;;;;;;5051946;28;20045;-80
2022/02/12 09:27:17;;;;;;;5.90;4.30;;;;;;;;;;5034033;28;20181;-80
2022/02/12 09:29:49;;;;;;;6.38;3.03;;;;;;;;;;5052317;28;20103;-82
2022/02/12 09:32:15;;;;;;;5.72;2.92;;;;;;;;;;5034188;28;20029;-83
2022/02/12 09:34:43;;;;;;;6.35;3.35;;;;;;;;;;5034281;28;20049;-82
2022/02/12 09:37:19;;;;;;;6.85;4.13;;;;;;;;;;5034909;28;20539;-82
2022/02/12 09:39:45;;;;;;;4.38;2.88;;;;;;;;;;5056325;28;20491;-80
2022/02/12 09:42:22;;;;;;;;;;;;;;;;;;;;;
2022/02/12 09:44:48;;;;;;;6.32;3.50;;;;;;;;;;5056064;28;20035;-77
2022/02/12 09:47:17;;;;;;;5.93;3.05;;;;;;;;;;5054162;28;20079;-79
2022/02/12 09:49:46;;;;;;;5.95;3.08;;;;;;;;;;5056099;28;20036;-87
2022/02/12 09:52:15;;;;;;;8.25;4.18;;;;;;;;;;5056114;28;20036;-80
2022/02/12 09:54:43;;;;;;;7.35;4.57;;;;;;;;;;5055874;28;20056;-86
2022/02/12 09:57:10;;;;;;;5.80;3.88;;;;;;;;;;5037731;28;20180;-81
2022/02/12 09:59:36;;;;;;;6.47;3.50;;;;;;;;;;5038255;28;20032;-81
2022/02/12 10:02:02;;;;;;;6.15;4.57;;;;;;;;;;5037704;28;20040;-80
2022/02/12 10:07:25;;;;;;;4.57;2.72;;;;;;;;;;5055332;28;20098;-80
2022/02/12 10:10:10;;;;;;;6.75;4.57;;;;;;;;;;5055505;28;20041;-79
2022/02/12 10:12:36;;;;;;;4.47;2.95;;;;;;;;;;5037847;28;20479;-82
2022/02/12 10:15:03;;;;;;;7.75;4.65;;;;;;;;;;5037582;28;20138;-81
2022/02/12 10:17:29;;;;;;;7.40;4.75;;;;;;;;;;5037183;28;20451;-80
2022/02/12 10:19:55;;;;;;;5.57;3.60;;;;;;;;;;5037021;28;20021;-80
2022/02/12 10:22:31;;;;;;;7.95;3.40;;;;;;;;;;5055286;28;20028;-81
2022/02/12 10:25:04;;;;;;;9.13;5.88;;;;;;;;;;5055062;28;20053;-79
2022/02/12 10:27:31;;;;;;;6.65;4.15;;;;;;;;;;5055420;28;20032;-82
2022/02/12 10:30:02;;;;;;;5.63;3.45;;;;;;;;;;5055079;28;20028;-83
2022/02/12 10:32:29;;;;;;;6.20;3.30;;;;;;;;;;5037072;28;20033;-79
2022/02/12 10:34:58;;;;;;;5.68;2.97;;;;;;;;;;5055226;28;20067;-80
2022/02/12 10:37:28;;;;;;;5.63;3.10;;;;;;;;;;5037281;28;20025;-83
2022/02/12 10:40:17;;;;;;;8.73;4.72;;;;;;;;;;5037162;28;20029;-87
2022/02/12 10:42:46;;;;;;;18.92;9.00;;;;;;;;;;5050231;28;20033;-84
2022/02/12 10:45:25;;;;;;;8.95;5.70;;;;;;;;;;5036649;28;20583;-80
2022/02/12 10:48:01;;;;;;;;;;;;;;;;;;;;;
2022/02/12 10:50:29;;;;;;;6.65;3.53;;;;;;;;;;5054194;28;20366;-77
2022/02/12 10:53:05;;;;;;;8.90;5.55;;;;;;;;;;5054720;28;20047;-81
2022/02/12 10:58:24;;;;;;;6.82;5.25;;;;;;;;;;5023545;28;20472;-82
2022/02/12 11:00:51;;;;;;;4.22;2.88;;;;;;;;;;5054850;28;20025;-83
2022/02/12 11:03:20;;;;;;;6.47;2.97;;;;;;;;;;5036310;28;20033;-80
2022/02/12 11:05:52;;;;;;;4.20;2.50;;;;;;;;;;5036502;28;20500;-79
2022/02/12 11:08:30;;;;;;;5.65;3.67;;;;;;;;;;5036244;28;20021;-79
2022/02/12 11:10:57;;;;;;;6.20;3.47;;;;;;;;;;5036612;28;20021;-82
2022/02/12 11:13:25;;;;;;;7.20;3.17;;;;;;;;;;5054073;28;20037;-79
2022/02/12 11:15:51;;;;;;;4.22;2.55;;;;;;;;;;5054349;28;20472;-79
2022/02/12 11:18:22;;;;;;;6.00;3.15;;;;;;;;;;5038745;28;20018;-82
2022/02/12 11:20:56;;;;;;;3.90;2.50;;;;;;;;;;5006081;28;20030;-78
2022/02/12 11:23:27;;;;;;;;;;;;;;;;;;5014276;28;20029;-79
2022/02/12 11:26:04;;;;;;;7.40;4.80;;;;;;;;;;5009494;28;19949;-81
2022/02/12 11:28:42;;;;;;;;;;;;;;;;;;;;;
2022/02/12 11:31:24;;;;;;;7.10;3.58;;;;;;;;;;5033988;28;20028;-88
2022/02/12 11:34:09;;;;;;;6.57;4.28;;;;;;;;;;5033744;28;20039;-77
2022/02/12 11:36:36;;;;;;;7.53;4.40;;;;;;;;;;5028309;28;20049;-80
2022/02/12 11:39:09;;;;;;;9.40;6.65;;;;;;;;;;4996428;28;20044;-80
2022/02/12 11:41:35;;;;;;;9.40;7.25;;;;;;;;;;5014204;28;20026;-80
2022/02/12 11:44:04;;;;;;;8.70;6.85;;;;;;;;;;5014029;28;20049;-80
2022/02/12 11:46:49;;;;;;;7.47;4.55;;;;;;;;;;5013749;28;20045;-82
2022/02/12 11:49:33;;;;;;;6.60;4.70;;;;;;;;;;4996211;28;20088;-81
2022/02/12 11:52:01;;;;;;;;;;;;;;;;;;5014143;28;20028;-83
2022/02/12 11:54:56;;;;;;;;;;;;;;;;;;;;;
2022/02/12 11:57:28;;;;;;;6.68;4.82;;;;;;;;;;5013802;28;20026;-83
2022/02/12 12:00:00;;;;;;;9.38;5.80;;;;;;;;;;5013782;28;20057;-80
2022/02/12 12:02:45;;;;;;;8.30;5.68;;;;;;;;;;4995659;28;20026;-81
2022/02/12 12:05:30;;;;;;;14.50;6.60;;;;;;;;;;5013373;28;20507;-78
2022/02/12 12:08:15;;;;;;;9.05;5.90;;;;;;;;;;5013423;28;20042;-81
2022/02/12 12:10:41;;;;;;;;;;;;;;;;;;5013640;28;20044;-79
2022/02/12 12:13:10;;;;;;;8.43;5.13;;;;;;;;;;5013287;28;20383;-78
2022/02/12 12:15:37;;;;;;;8.48;6.07;;;;;;;;;;5012959;28;20030;-79
2022/02/12 12:18:04;;;;;;;5.57;4.07;;;;;;;;;;5013380;28;20105;-77
2022/02/12 12:20:33;;;;;;;12.40;7.32;;;;;;;;;;5012665;28;20025;-78
2022/02/12 12:23:09;;;;;;;5.53;4.00;;;;;;;;;;5013088;28;20030;-79
2022/02/12 12:25:54;;;;;;;6.65;4.38;;;;;;;;;;5012812;28;20046;-78
2022/02/12 12:28:31;;;;;;;6.47;4.35;;;;;;;;;;5012892;28;20029;-78
2022/02/12 12:30:58;;;;;;;5.97;3.50;;;;;;;;;;5012932;28;20025;-80
2022/02/12 12:33:34;;;;;;;6.93;4.15;;;;;;;;;;4995355;28;20029;-78
2022/02/12 12:36:01;;;;;;;24.52;14.73;;;;;;;;;;5012782;28;20512;-76
2022/02/12 12:38:45;;;;;;;8.63;5.70;;;;;;;;;;5013013;28;20026;-79
2022/02/12 12:41:20;;;;;;;5.75;4.13;;;;;;;;;;5012949;28;20080;-78
2022/02/12 12:43:46;;;;;;;4.63;4.20;;;;;;;;;;5012493;28;20422;-77
2022/02/12 12:46:13;;;;;;;5.93;3.72;;;;;;;;;;5012749;28;20041;-79
2022/02/12 12:48:39;;;;;;;7.40;4.85;;;;;;;;;;5012417;28;20156;-78
2022/02/12 12:51:05;;;;;;;6.70;4.53;;;;;;;;;;5012906;28;20026;-76
2022/02/12 12:53:32;;;;;;;6.90;4.07;;;;;;;;;;5012613;28;20392;-77
2022/02/12 12:56:07;;;;;;;8.65;4.65;;;;;;;;;;5012861;28;20022;-80
2022/02/12 12:58:33;;;;;;;6.75;4.10;;;;;;;;;;4995197;28;20034;-77
2022/02/12 13:01:11;;;;;;;6.82;4.55;;;;;;;;;;5012687;28;20030;-79
2022/02/12 13:03:55;;;;;;;7.18;4.93;;;;;;;;;;4994937;28;20032;-79
2022/02/12 13:06:21;;;;;;;;;;;;;;;;;;5017410;28;20028;-87
2022/02/12 13:08:48;;;;;;;7.50;4.40;;;;;;;;;;5032324;28;19909;-78
2022/02/12 13:11:33;;;;;;;11.02;7.18;;;;;;;;;;5014647;28;20042;-79
2022/02/12 13:14:06;;;;;;;7.20;5.10;;;;;;;;;;5017967;28;20025;-84
2022/02/12 13:16:40;;;;;;;5.53;4.20;;;;;;;;;;5042806;28;20029;-78
2022/02/12 13:19:13;;;;;;;6.32;4.97;;;;;;;;;;5031974;28;20026;-84
2022/02/12 13:21:44;;;;;;;9.68;5.50;;;;;;;;;;5012542;28;20031;-79
2022/02/12 13:24:22;;;;;;;6.43;4.55;;;;;;;;;;5016151;28;20117;-80
2022/02/12 13:26:48;;;;;;;7.28;4.85;;;;;;;;;;4999339;28;20042;-80
2022/02/12 13:29:19;;;;;;;4.90;3.92;;;;;;;;;;5029187;28;20056;-79
2022/02/12 13:31:50;;;;;;;7.32;4.38;;;;;;;;;;5037324;28;20036;-79
2022/02/12 13:34:17;;;;;;;6.45;4.70;;;;;;;;;;5037924;28;20037;-80
2022/02/12 13:39:32;;;;;;;7.55;5.80;;;;;;;;;;4992022;28;20026;-82
2022/02/12 13:42:00;;;;;;;8.35;5.70;;;;;;;;;;5011318;28;20084;-80
2022/02/12 13:44:30;;;;;;;8.88;5.28;;;;;;;;;;5032830;28;20040;-85
2022/02/12 13:46:57;;;;;;;6.55;5.03;;;;;;;;;;5038627;28;20088;-78
2022/02/12 13:49:28;;;;;;;7.15;4.90;;;;;;;;;;5029670;28;20037;-78
2022/02/12 13:51:55;;;;;;;8.82;4.50;;;;;;;;;;5031728;28;20033;-81
2022/02/12 13:54:27;;;;;;;6.35;4.35;;;;;;;;;;5014996;28;20030;-79
2022/02/12 13:56:56;;;;;;;8.63;6.15;;;;;;;;;;5006538;28;20029;-79
2022/02/12 13:59:24;;;;;;;10.13;5.97;;;;;;;;;;5034652;28;20512;-82
2022/02/12 14:01:51;;;;;;;7.15;4.70;;;;;;;;;;5015598;28;20025;-79
2022/02/12 14:04:18;;;;;;;6.05;4.50;;;;;;;;;;5033680;28;20373;-80
2022/02/12 14:06:44;;;;;;;6.72;4.78;;;;;;;;;;5027029;28;20072;-79
2022/02/12 14:09:21;;;;;;;8.60;4.75;;;;;;;;;;5029334;28;20034;-81
2022/02/12 14:14:43;;;;;;;13.85;9.20;;;;;;;;;;4969377;28;20094;-78
2022/02/12 14:23:04;;;;;;;10.68;8.18;;;;;;;;;;4945057;28;20043;-79
2022/02/12 14:25:36;;;;;;;9.02;4.45;;;;;;;;;;4953450;28;20141;-81
2022/02/12 14:28:04;;;;;;;8.60;6.30;;;;;;;;;;5003823;28;20104;-80
2022/02/12 14:30:38;;;;;;;6.55;5.22;;;;;;;;;;5025963;28;20036;-81
2022/02/12 14:33:04;;;;;;;7.80;3.33;;;;;;;;;;5028433;28;20026;-82
2022/02/12 14:35:33;;;;;;;5.45;4.15;;;;;;;;;;5023469;28;20021;-82
2022/02/12 14:38:06;;;;;;;6.38;4.60;;;;;;;;;;5012545;28;20109;-84
2022/02/12 14:40:40;;;;;;;8.03;4.87;;;;;;;;;;5025385;28;20503;-80
2022/02/12 14:45:57;;;;;;;8.65;6.05;;;;;;;;;;4987191;28;20072;-86
2022/02/12 14:48:45;;;;;;;;;;;;;;;;;;;;;
2022/02/12 14:51:20;;;;;;;6.97;4.43;;;;;;;;;;5025198;28;20025;-84
2022/02/12 14:53:46;;;;;;;15.20;10.50;;;;;;;;;;5022757;28;20071;-81
2022/02/12 14:56:16;;;;;;;9.88;6.10;;;;;;;;;;5022853;28;20033;-84
2022/02/12 14:58:45;;;;;;;8.30;5.45;;;;;;;;;;5026108;28;20026;-83
2022/02/12 15:01:11;;;;;;;7.88;5.30;;;;;;;;;;5028159;28;20033;-83
2022/02/12 15:03:37;;;;;;;7.30;5.70;;;;;;;;;;5005661;28;20035;-79
2022/02/12 15:06:04;;;;;;;8.07;5.45;;;;;;;;;;5024698;28;20030;-80
2022/02/12 15:08:32;;;;;;;5.90;4.55;;;;;;;;;;5033400;28;20053;-81
2022/02/12 15:10:58;;;;;;;8.07;6.00;;;;;;;;;;5015038;28;20038;-80
2022/02/12 15:13:29;;;;;;;8.80;6.85;;;;;;;;;;4996865;28;20136;-82